Time;durP1;ratioP1;P1;durP2;ratioP2;P2;SDS_P1;SDS_P2;PMS_P1;PMS_P2;Temp;Humidity;BMP_temperature;BMP_pressure;BME280_temperature;BME280_humidity;BME280_pressure;Samples;Min_cycle;Max_cycle;Signal;HPM_P1;HPM_P2
2022/01/23 00:00:05;;;;;;;18.80;14.77;;;;;;;7.44;68.68;103519.66;5103048;28;20044;-58
2022/01/23 00:02:34;;;;;;;18.75;14.88;;;;;;;7.43;69.08;103521.50;5102997;28;20063;-58
2022/01/23 00:05:06;;;;;;;20.65;15.48;;;;;;;7.45;69.26;103529.38;5103711;28;20127;-58
2022/01/23 00:07:36;;;;;;;22.35;15.00;;;;;;;7.43;69.08;103523.34;5101691;28;20089;-58
2022/01/23 00:10:05;;;;;;;21.38;15.20;;;;;;;7.45;69.30;103518.69;5103313;28;20185;-58
2022/01/23 00:12:40;;;;;;;21.38;14.55;;;;;;;7.50;68.99;103516.44;5102969;28;20044;-58
2022/01/23 00:17:54;;;;;;;20.35;14.93;;;;;;;7.54;68.80;103512.53;5093005;28;20051;-58
2022/01/23 00:20:23;;;;;;;17.50;13.98;;;;;;;7.55;68.43;103508.88;5103130;28;20067;-58
2022/01/23 00:22:56;;;;;;;21.85;14.98;;;;;;;7.57;68.54;103509.56;5099716;28;20068;-59
2022/01/23 00:30:59;;;;;;;21.45;14.32;;;;;;;7.56;69.19;103499.00;5091419;28;20083;-58
2022/01/23 00:33:27;;;;;;;17.05;13.57;;;;;;;7.55;68.69;103500.84;5102326;28;20036;-58
2022/01/23 00:35:55;;;;;;;20.23;13.63;;;;;;;7.51;69.35;103483.34;5102585;28;20040;-58
2022/01/23 00:38:23;;;;;;;19.60;14.48;;;;;;;7.55;68.79;103490.13;5102288;28;20044;-58
2022/01/23 00:40:51;;;;;;;19.73;14.75;;;;;;;7.54;69.03;103491.13;5102997;28;20477;-58
2022/01/23 00:43:28;;;;;;;25.83;14.02;;;;;;;7.59;68.98;103486.19;5102264;28;20064;-59
2022/01/23 00:46:08;;;;;;;20.23;13.50;;;;;;;7.64;68.11;103486.63;5102714;28;20109;-59
2022/01/23 00:48:40;;;;;;;18.58;14.90;;;;;;;7.67;68.77;103488.19;5096893;28;20111;-58
2022/01/23 00:51:08;;;;;;;19.00;14.43;;;;;;;7.68;68.71;103490.72;5102366;28;20067;-58
2022/01/23 00:53:36;;;;;;;21.17;14.32;;;;;;;7.67;68.37;103489.03;5099548;28;20043;-58
2022/01/23 00:56:04;;;;;;;21.67;14.13;;;;;;;7.68;68.95;103489.88;5101946;28;20044;-58
2022/01/23 00:58:33;;;;;;;17.90;13.68;;;;;;;7.68;67.78;103487.19;5101900;28;20073;-58
2022/01/23 01:01:01;;;;;;;18.73;13.45;;;;;;;7.67;68.10;103472.97;5101628;28;20144;-58
2022/01/23 01:03:29;;;;;;;24.88;14.77;;;;;;;7.65;67.83;103480.28;5101692;28;20044;-58
2022/01/23 01:05:56;;;;;;;18.98;13.45;;;;;;;7.65;68.23;103482.97;5102413;28;20066;-58
2022/01/23 01:08:24;;;;;;;20.77;14.88;;;;;;;7.64;68.07;103481.28;5101655;28;20075;-58
2022/01/23 01:11:03;;;;;;;19.67;14.27;;;;;;;7.64;68.53;103477.75;5102283;28;20048;-58
2022/01/23 01:13:54;;;;;;;22.23;14.68;;;;;;;7.62;68.33;103469.88;5101168;28;20055;-59
2022/01/23 01:16:40;;;;;;;25.80;15.55;;;;;;;7.62;68.25;103469.03;5101827;28;20071;-59
2022/01/23 01:30:37;;;;;;;22.25;15.32;;;;;;;7.59;68.32;103477.31;5101166;28;20260;-58
2022/01/23 01:33:16;;;;;;;22.45;15.73;;;;;;;7.57;68.93;103476.63;5101558;28;20083;-58
2022/01/23 01:35:50;;;;;;;21.17;15.45;;;;;;;7.54;68.87;103469.69;5101646;28;20068;-58
2022/01/23 01:38:18;;;;;;;21.33;14.90;;;;;;;7.58;68.32;103481.81;5101281;28;20067;-58
2022/01/23 01:40:46;;;;;;;19.67;14.75;;;;;;;7.53;69.15;103486.75;5101177;28;20047;-58
2022/01/23 01:43:14;;;;;;;23.17;16.30;;;;;;;7.57;68.54;103485.50;5096399;28;20075;-59
2022/01/23 01:45:44;;;;;;;21.52;14.73;;;;;;;7.55;68.88;103491.97;5101302;28;20059;-58
2022/01/23 01:48:14;;;;;;;21.88;15.68;;;;;;;7.55;68.79;103500.00;5101032;28;20080;-59
2022/01/23 01:50:45;;;;;;;22.42;15.20;;;;;;;7.53;69.10;103493.94;5101604;28;20055;-58
2022/01/23 01:53:14;;;;;;;22.25;15.48;;;;;;;7.52;68.95;103495.75;5095395;28;20055;-58
2022/01/23 01:55:46;;;;;;;20.52;15.20;;;;;;;7.53;69.26;103499.28;5101376;28;20071;-58
2022/01/23 01:58:34;;;;;;;22.40;15.63;;;;;;;7.51;68.65;103489.56;5100880;28;20123;-58
2022/01/23 02:02:37;;;;;;;20.80;15.27;;;;;;;7.51;69.31;103494.06;5100544;28;20048;-58
2022/01/23 02:09:32;;;;;;;21.67;15.07;;;;;;;7.49;68.99;103496.03;5088924;28;20047;-58
2022/01/23 02:12:18;;;;;;;22.77;15.82;;;;;;;7.48;68.93;103502.38;5101409;28;20059;-58
2022/01/23 02:15:09;;;;;;;19.70;14.93;;;;;;;7.49;69.13;103496.03;5100769;28;20151;-58
2022/01/23 02:17:53;;;;;;;21.55;15.38;;;;;;;7.48;69.42;103491.66;5100307;28;20051;-58
2022/01/23 02:23:27;;;;;;;20.02;14.75;;;;;;;7.46;68.92;103497.16;5069061;28;19963;-58
2022/01/23 02:50:55;;;;;;;18.60;14.38;;;;;;;7.44;68.98;103466.16;5098999;28;20110;-58
2022/01/23 02:53:42;;;;;;;19.08;14.32;;;;;;;7.44;69.02;103458.13;5100442;28;20147;-58
2022/01/23 02:56:19;;;;;;;21.25;16.25;;;;;;;7.42;69.29;103458.28;5100088;28;20418;-58
2022/01/23 02:58:58;;;;;;;;;;;;;;;7.43;69.16;103459.13;5100397;28;20055;-58
2022/01/23 03:01:29;;;;;;;21.95;14.88;;;;;;;7.42;69.27;103460.09;5100275;28;19927;-58
2022/01/23 03:04:02;;;;;;;19.98;14.70;;;;;;;7.42;69.01;103465.44;5099624;28;20070;-59
2022/01/23 03:06:53;;;;;;;19.83;15.00;;;;;;;7.43;69.02;103453.75;5091937;28;20090;-58
2022/01/23 03:12:32;;;;;;;18.98;14.95;;;;;;;7.41;68.93;103467.28;5092821;28;20075;-59
2022/01/23 03:15:05;;;;;;;19.50;15.23;;;;;;;7.41;69.29;103450.38;5100151;28;20068;-58
2022/01/23 03:28:39;;;;;;;18.67;13.95;;;;;;;7.39;69.16;103463.03;5099811;28;20047;-58
2022/01/23 03:31:20;;;;;;;21.27;15.30;;;;;;;7.37;69.90;103471.22;5099808;28;20080;-59
2022/01/23 03:33:48;;;;;;;21.55;14.43;;;;;;;7.37;69.25;103462.34;5088036;28;20127;-59
2022/01/23 03:36:16;;;;;;;19.63;15.15;;;;;;;7.36;69.46;103469.53;5100299;28;20079;-58
2022/01/23 03:38:44;;;;;;;19.02;14.57;;;;;;;7.36;68.98;103468.66;5099341;28;20063;-58
2022/01/23 03:41:14;;;;;;;20.00;13.95;;;;;;;7.35;69.22;103464.31;5100557;28;20385;-58
2022/01/23 03:43:41;;;;;;;21.10;14.80;;;;;;;7.35;69.57;103475.84;5099781;28;20091;-59
2022/01/23 03:46:23;;;;;;;25.50;16.55;;;;;;;7.35;69.47;103477.69;5103091;28;20112;-58
2022/01/23 03:51:37;;;;;;;22.67;15.97;;;;;;;7.35;69.28;103472.31;5103615;28;20070;-59
2022/01/23 03:54:05;;;;;;;23.27;16.08;;;;;;;7.34;69.64;103474.16;5102657;28;20314;-58
2022/01/23 03:56:34;;;;;;;22.83;16.10;;;;;;;7.35;69.12;103467.81;5104080;28;20083;-58
2022/01/23 03:59:20;;;;;;;20.95;15.25;;;;;;;7.35;69.09;103467.81;5102240;28;20087;-58
2022/01/23 04:01:48;;;;;;;23.40;16.23;;;;;;;7.36;69.04;103477.53;5102861;28;20075;-59
2022/01/23 04:04:28;;;;;;;28.40;17.48;;;;;;;7.34;69.47;103479.50;5103071;28;20044;-58
2022/01/23 04:06:56;;;;;;;26.30;16.52;;;;;;;7.34;69.46;103470.63;5102609;28;20132;-58
2022/01/23 04:09:24;;;;;;;23.80;16.52;;;;;;;7.36;68.89;103468.66;5103044;28;20119;-58
2022/01/23 04:11:53;;;;;;;24.67;16.20;;;;;;;7.33;69.52;103468.94;5103638;28;20080;-59
2022/01/23 04:14:23;;;;;;;22.48;16.50;;;;;;;7.31;69.04;103479.78;5102508;28;20072;-58
2022/01/23 04:20:00;;;;;;;21.35;15.60;;;;;;;7.34;69.12;103481.34;5059609;28;20081;-58
2022/01/23 04:33:51;;;;;;;24.52;17.35;;;;;;;7.33;69.64;103476.97;5058772;28;20051;-58
2022/01/23 05:01:35;;;;;;;29.45;18.70;;;;;;;7.32;69.36;103492.16;5019338;28;20069;-58
2022/01/23 05:04:13;;;;;;;28.00;17.23;;;;;;;7.32;69.50;103494.84;5018563;28;20176;-58
2022/01/23 05:06:46;;;;;;;28.73;18.40;;;;;;;7.31;69.61;103485.13;5019011;28;20259;-58
2022/01/23 05:09:15;;;;;;;25.80;17.85;;;;;;;7.32;69.38;103483.31;5010100;28;20058;-58
2022/01/23 05:11:49;;;;;;;24.60;18.52;;;;;;;7.32;69.54;103489.50;5019762;28;20050;-59
2022/01/23 05:14:21;;;;;;;25.23;17.58;;;;;;;7.32;69.38;103485.97;5018413;28;20478;-58
2022/01/23 05:16:50;;;;;;;25.85;17.05;;;;;;;7.30;69.39;103490.63;5019311;28;20061;-58
2022/01/23 05:19:17;;;;;;;24.65;18.50;;;;;;;7.31;69.40;103485.13;5068691;28;20083;-59
2022/01/23 05:22:05;;;;;;;26.52;17.77;;;;;;;7.31;69.64;103486.97;5100919;28;20133;-58
2022/01/23 05:24:37;;;;;;;;;;;;;;;7.31;69.64;103492.31;5102257;28;20123;-58
2022/01/23 05:27:07;;;;;;;27.38;18.33;;;;;;;7.31;69.39;103484.28;5101814;28;19974;-58
2022/01/23 05:29:36;;;;;;;27.92;18.15;;;;;;;7.31;69.11;103481.59;5100595;28;20040;-58
2022/01/23 05:32:07;;;;;;;26.42;17.58;;;;;;;7.31;69.66;103492.31;5101594;28;20178;-58
2022/01/23 05:34:35;;;;;;;24.83;17.88;;;;;;;7.29;69.05;103492.44;5101869;28;20071;-59
2022/01/23 05:37:03;;;;;;;28.80;20.05;;;;;;;7.30;69.46;103493.28;5101556;28;20090;-58
2022/01/23 05:39:33;;;;;;;27.40;19.13;;;;;;;7.29;69.53;103492.44;5101333;28;20059;-58
2022/01/23 05:42:06;;;;;;;28.65;19.58;;;;;;;7.29;68.92;103489.78;5101454;28;20140;-58
2022/01/23 05:44:36;;;;;;;28.30;19.15;;;;;;;7.28;69.08;103488.06;5100823;28;20360;-58
2022/01/23 05:47:06;;;;;;;29.58;19.77;;;;;;;7.28;69.84;103487.22;5101706;28;20098;-58
2022/01/23 05:49:35;;;;;;;30.13;19.60;;;;;;;7.19;69.44;103476.34;5100828;28;20083;-59
2022/01/23 05:52:04;;;;;;;29.10;19.52;;;;;;;7.27;69.09;103491.72;5101085;28;20446;-59
2022/01/23 05:54:32;;;;;;;31.20;20.73;;;;;;;7.27;68.87;103489.06;5101392;28;20044;-58
2022/01/23 05:57:00;;;;;;;28.58;19.70;;;;;;;7.27;69.15;103490.88;5101663;28;20058;-58
2022/01/23 05:59:27;;;;;;;30.52;21.67;;;;;;;7.26;69.53;103482.00;5100439;28;20075;-59
2022/01/23 06:01:55;;;;;;;30.83;19.45;;;;;;;7.28;69.06;103487.22;5101366;28;20051;-58
2022/01/23 06:04:26;;;;;;;28.35;20.23;;;;;;;7.26;68.98;103476.66;5098996;28;20070;-59
2022/01/23 06:06:56;;;;;;;28.73;19.63;;;;;;;7.26;69.88;103483.84;5101160;28;20108;-59
2022/01/23 06:09:24;;;;;;;27.80;19.92;;;;;;;7.25;69.44;103483.00;5100890;28;20109;-58
2022/01/23 06:11:52;;;;;;;28.50;19.17;;;;;;;7.27;69.15;103488.22;5097276;28;20040;-59
2022/01/23 06:14:21;;;;;;;30.80;20.58;;;;;;;7.26;69.57;103483.84;5099996;28;20079;-58
2022/01/23 06:16:49;;;;;;;31.88;20.52;;;;;;;7.26;69.80;103490.03;5100489;28;20055;-58
2022/01/23 06:19:17;;;;;;;31.48;21.17;;;;;;;7.26;69.56;103486.53;4388845;28;10000741;-59
2022/01/23 06:21:46;;;;;;;29.40;20.75;;;;;;;7.26;69.48;103492.72;5097224;28;20135;-59
2022/01/23 06:24:23;;;;;;;31.52;21.30;;;;;;;7.27;69.12;103502.44;5096885;28;20611;-58
2022/01/23 06:26:53;;;;;;;29.33;19.70;;;;;;;7.27;69.51;103497.09;5094509;28;20122;-58
2022/01/23 06:29:23;;;;;;;34.25;20.65;;;;;;;7.29;69.60;103499.63;5096155;28;20091;-58
2022/01/23 06:31:53;;;;;;;27.45;20.15;;;;;;;7.28;69.37;103495.25;5096417;28;20087;-58
2022/01/23 06:34:21;;;;;;;35.67;20.65;;;;;;;7.28;69.41;103492.56;5098065;28;20087;-58
2022/01/23 06:36:52;;;;;;;28.77;21.25;;;;;;;7.27;68.96;103501.59;5106435;28;20072;-58
2022/01/23 06:39:21;;;;;;;29.10;20.35;;;;;;;7.25;69.11;103499.03;5094130;28;20493;-59
2022/01/23 06:41:49;;;;;;;33.10;21.63;;;;;;;7.26;69.09;103497.22;5094693;28;20052;-58
2022/01/23 06:44:16;;;;;;;30.15;20.75;;;;;;;7.27;69.48;103506.94;5096625;28;20148;-58
2022/01/23 06:46:45;;;;;;;31.23;20.27;;;;;;;7.26;70.02;103500.75;5097480;28;20135;-59
2022/01/23 06:49:12;;;;;;;30.65;21.63;;;;;;;7.25;70.14;103509.75;5096783;28;20072;-58
2022/01/23 06:51:42;;;;;;;30.38;20.70;;;;;;;7.25;69.82;103507.06;5097275;28;20341;-61
2022/01/23 06:54:12;;;;;;;28.77;19.67;;;;;;;7.25;69.66;103512.41;5087677;28;20044;-58
2022/01/23 06:56:40;;;;;;;30.77;20.17;;;;;;;7.24;69.74;103509.88;5097340;28;20062;-58
2022/01/23 06:59:08;;;;;;;30.33;21.40;;;;;;;7.24;69.59;103521.41;5096467;28;20091;-59
2022/01/23 07:01:36;;;;;;;32.95;22.05;;;;;;;7.23;70.19;103522.41;5102061;28;20075;-58
2022/01/23 07:04:04;;;;;;;29.52;19.55;;;;;;;7.25;70.17;103511.56;5096442;28;20154;-58
2022/01/23 07:06:32;;;;;;;32.33;21.38;;;;;;;7.24;69.75;103523.25;5092283;28;20044;-58
2022/01/23 07:09:08;;;;;;;29.30;22.20;;;;;;;7.23;70.04;103522.41;5103404;28;20039;-59
2022/01/23 07:11:37;;;;;;;34.42;22.27;;;;;;;7.23;69.79;103522.41;5102996;28;20079;-58
2022/01/23 07:14:05;;;;;;;33.80;22.67;;;;;;;7.14;69.87;103513.34;5103409;28;20063;-59
2022/01/23 07:16:33;;;;;;;31.70;21.48;;;;;;;7.23;70.18;103529.59;5099602;28;20124;-58
2022/01/23 07:19:01;;;;;;;35.15;22.63;;;;;;;7.15;69.81;103533.78;5099050;28;20040;-59
2022/01/23 07:21:29;;;;;;;32.08;21.67;;;;;;;7.18;69.83;103535.34;5100610;28;20090;-60
2022/01/23 07:23:56;;;;;;;32.60;21.70;;;;;;;7.19;69.92;103545.91;5100183;28;20056;-60
2022/01/23 07:26:27;;;;;;;31.45;22.10;;;;;;;7.21;70.04;103548.44;5100806;28;20521;-60
2022/01/23 07:28:58;;;;;;;34.72;22.83;;;;;;;7.23;70.14;103545.63;5099997;28;20058;-59
2022/01/23 07:31:45;;;;;;;30.73;22.08;;;;;;;7.23;70.05;103545.63;5100188;28;20090;-59
2022/01/23 07:34:17;;;;;;;35.63;21.63;;;;;;;7.23;69.35;103545.63;5100071;28;20138;-59
2022/01/23 07:36:45;;;;;;;34.70;21.52;;;;;;;7.22;69.62;103549.28;5100772;28;20048;-60
2022/01/23 07:39:13;;;;;;;32.10;21.83;;;;;;;7.23;70.46;103553.66;5099663;28;20079;-60
2022/01/23 07:41:41;;;;;;;31.25;21.85;;;;;;;7.22;70.20;103560.84;5098736;28;20500;-60
2022/01/23 07:44:10;;;;;;;37.05;24.00;;;;;;;7.22;69.48;103557.31;5099402;28;20080;-59
2022/01/23 07:46:38;;;;;;;32.17;22.33;;;;;;;7.22;69.63;103566.19;5098697;28;20048;-60
2022/01/23 07:49:05;;;;;;;34.63;22.98;;;;;;;7.21;69.51;103567.16;5099665;28;20060;-60
2022/01/23 07:51:33;;;;;;;35.60;22.23;;;;;;;7.21;69.76;103563.63;5087194;28;20467;-60
2022/01/23 07:54:01;;;;;;;31.88;21.55;;;;;;;7.22;69.45;103565.34;5096332;28;20079;-59
2022/01/23 07:56:29;;;;;;;31.92;22.58;;;;;;;7.21;70.04;103559.13;5089959;28;20167;-60
2022/01/23 07:58:57;;;;;;;32.90;23.00;;;;;;;7.21;70.07;103568.97;5095407;28;20115;-59
2022/01/23 08:01:26;;;;;;;31.08;22.27;;;;;;;7.21;69.28;103568.97;5096812;28;20067;-60
2022/01/23 08:03:54;;;;;;;32.55;22.73;;;;;;;7.21;69.34;103568.97;5091439;28;20500;-59
2022/01/23 08:06:28;;;;;;;40.17;23.75;;;;;;;7.23;69.70;103565.19;5097904;28;20074;-62
2022/01/23 08:08:56;;;;;;;32.22;21.33;;;;;;;7.36;69.16;103576.53;5098275;28;20070;-57
2022/01/23 08:11:24;;;;;;;35.72;22.92;;;;;;;7.48;69.36;103561.22;5099445;28;20457;-59
2022/01/23 08:13:52;;;;;;;35.63;22.55;;;;;;;7.64;68.32;103564.25;5098741;28;20090;-57
2022/01/23 08:16:20;;;;;;;31.67;21.55;;;;;;;7.81;67.73;103563.59;5099438;28;20048;-57
2022/01/23 08:18:49;;;;;;;33.13;23.05;;;;;;;7.97;67.90;103570.25;5097966;28;20044;-57
2022/01/23 08:21:17;;;;;;;31.98;21.75;;;;;;;8.12;67.03;103575.06;5093772;28;20133;-57
2022/01/23 08:23:44;;;;;;;33.67;22.52;;;;;;;8.27;66.13;103569.31;5092808;28;20063;-57
2022/01/23 08:26:13;;;;;;;33.15;22.20;;;;;;;8.42;65.76;103571.47;5098674;28;20044;-57
2022/01/23 08:28:41;;;;;;;32.05;22.55;;;;;;;8.56;65.32;103564.84;5097132;28;20075;-60
2022/01/23 08:31:08;;;;;;;30.90;20.75;;;;;;;8.69;64.65;103576.09;5098166;28;20040;-55
2022/01/23 08:33:36;;;;;;;29.83;22.10;;;;;;;8.80;64.13;103570.56;5097504;28;20116;-57
2022/01/23 08:36:06;;;;;;;31.58;22.83;;;;;;;8.84;63.60;103571.13;5093445;28;20509;-59
2022/01/23 08:38:34;;;;;;;39.60;23.02;;;;;;;8.82;64.31;103578.47;5096750;28;20523;-57
2022/01/23 08:43:47;;;;;;;34.00;22.90;;;;;;;8.58;65.12;103584.31;5098896;28;20079;-57
2022/01/23 08:46:16;;;;;;;33.78;21.15;;;;;;;8.44;65.69;103595.44;5098736;28;20047;-58
2022/01/23 08:48:45;;;;;;;30.75;22.67;;;;;;;8.29;66.50;103594.97;5098852;28;20052;-58
2022/01/23 08:51:14;;;;;;;33.67;22.40;;;;;;;8.22;66.73;103606.38;5098068;28;20076;-58
2022/01/23 08:53:42;;;;;;;32.95;22.73;;;;;;;8.12;66.81;103601.84;5097890;28;20071;-57
2022/01/23 08:56:10;;;;;;;38.00;22.23;;;;;;;8.04;67.04;103604.38;5096876;28;20087;-56
2022/01/23 08:58:39;;;;;;;33.20;22.63;;;;;;;7.96;67.55;103603.38;5097667;28;20062;-59
2022/01/23 09:01:07;;;;;;;29.48;22.40;;;;;;;7.90;67.95;103603.91;5097210;28;20097;-58
2022/01/23 09:03:35;;;;;;;35.85;22.80;;;;;;;7.84;68.33;103602.63;5098554;28;20052;-59
2022/01/23 09:06:05;;;;;;;32.15;23.08;;;;;;;7.80;67.92;103610.09;5097003;28;20040;-58
2022/01/23 09:08:35;;;;;;;32.03;22.60;;;;;;;7.76;68.78;103594.44;5097950;28;20083;-58
2022/01/23 09:11:09;;;;;;;30.45;22.10;;;;;;;7.72;68.21;103596.53;5097949;28;20052;-59
2022/01/23 09:13:53;;;;;;;35.47;23.67;;;;;;;7.68;68.57;103596.94;5097897;28;20079;-57
2022/01/23 09:16:21;;;;;;;33.47;23.05;;;;;;;7.64;68.80;103596.38;5097126;28;20051;-57
2022/01/23 09:18:48;;;;;;;36.67;22.77;;;;;;;7.60;68.42;103594.94;5097497;28;20528;-59
2022/01/23 09:21:17;;;;;;;31.70;22.90;;;;;;;7.58;69.10;103594.22;5096813;28;20143;-58
2022/01/23 09:23:46;;;;;;;33.72;23.13;;;;;;;7.56;68.94;103592.66;5097824;28;20071;-58
2022/01/23 09:26:17;;;;;;;33.58;23.17;;;;;;;7.55;68.99;103597.19;5100067;28;20091;-58
2022/01/23 09:28:46;;;;;;;32.83;23.83;;;;;;;7.54;69.82;103591.94;5093641;28;20071;-64
2022/01/23 09:31:25;;;;;;;36.08;22.88;;;;;;;7.50;69.54;103597.56;5096987;28;20054;-62
2022/01/23 09:33:53;;;;;;;32.22;23.90;;;;;;;7.50;69.25;103596.72;5096913;28;20075;-62
2022/01/23 09:36:20;;;;;;;34.53;23.95;;;;;;;7.49;69.27;103595.03;5097016;28;20515;-63
2022/01/23 09:38:49;;;;;;;34.60;22.98;;;;;;;7.47;69.73;103595.16;5096607;28;20052;-61
2022/01/23 09:41:26;;;;;;;35.08;23.42;;;;;;;7.47;70.02;103603.19;5096989;28;20117;-61
2022/01/23 09:43:55;;;;;;;36.28;24.08;;;;;;;7.47;69.38;103605.88;5096736;28;20226;-61
2022/01/23 09:46:24;;;;;;;32.58;23.30;;;;;;;7.47;69.88;103607.69;5097508;28;20109;-60
2022/01/23 09:48:53;;;;;;;36.55;23.50;;;;;;;7.46;69.36;103608.69;5097670;28;20047;-60
2022/01/23 09:51:22;;;;;;;37.28;23.58;;;;;;;7.46;69.50;103612.19;5097648;28;20083;-61
2022/01/23 09:53:53;;;;;;;38.03;24.65;;;;;;;7.44;69.84;103608.81;5096478;28;20079;-60
2022/01/23 09:56:27;;;;;;;36.05;24.55;;;;;;;7.46;70.26;103611.34;5094259;28;20059;-60
2022/01/23 09:58:55;;;;;;;32.33;22.23;;;;;;;7.44;69.26;103610.66;5096565;28;20083;-60
2022/01/23 10:01:24;;;;;;;35.58;23.67;;;;;;;7.46;69.71;103611.34;5089534;28;20067;-60
2022/01/23 10:03:52;;;;;;;34.45;23.65;;;;;;;7.48;69.89;103620.09;5097350;28;20287;-64
2022/01/23 10:06:20;;;;;;;34.40;22.55;;;;;;;7.46;69.44;103620.22;5095548;28;20352;-57
2022/01/23 10:08:49;;;;;;;33.47;22.98;;;;;;;7.46;70.22;103622.06;5096765;28;20377;-61
2022/01/23 10:11:19;;;;;;;33.90;23.23;;;;;;;7.47;69.81;103621.06;5097411;28;20055;-62
2022/01/23 10:13:48;;;;;;;33.08;24.10;;;;;;;7.46;70.09;103630.94;5090483;28;20331;-61
2022/01/23 10:16:17;;;;;;;32.65;23.05;;;;;;;7.47;69.67;103624.59;5096664;28;20080;-59
2022/01/23 10:18:45;;;;;;;33.72;23.70;;;;;;;7.47;69.96;103623.75;5096408;28;20051;-61
2022/01/23 10:21:14;;;;;;;33.13;22.50;;;;;;;7.47;69.88;103618.41;5097308;28;20060;-62
2022/01/23 10:23:42;;;;;;;35.25;22.80;;;;;;;7.47;70.42;103619.25;5092787;28;20067;-62
2022/01/23 10:26:10;;;;;;;35.47;23.52;;;;;;;7.48;69.69;103612.91;5089883;28;20067;-62
2022/01/23 10:28:39;;;;;;;34.35;23.88;;;;;;;7.48;70.31;103606.72;5090425;28;20068;-62
2022/01/23 10:31:07;;;;;;;33.55;23.38;;;;;;;7.50;70.07;103610.94;5088016;28;20166;-61
2022/01/23 10:33:36;;;;;;;31.80;23.20;;;;;;;7.49;70.64;103611.09;5088900;28;20047;-61
2022/01/23 10:36:05;;;;;;;31.60;22.15;;;;;;;7.48;69.70;103612.91;5091642;28;20071;-62
2022/01/23 10:38:36;;;;;;;32.45;23.67;;;;;;;7.49;70.16;103611.09;5091837;28;20108;-61
2022/01/23 10:41:25;;;;;;;33.63;23.42;;;;;;;7.51;69.73;103609.97;5092202;28;20090;-60
2022/01/23 10:49:56;;;;;;;33.20;23.23;;;;;;;7.55;70.22;103607.03;5090817;28;20048;-60
2022/01/23 10:52:26;;;;;;;32.88;23.00;;;;;;;7.55;69.93;103607.03;5098407;28;20094;-61
2022/01/23 10:54:54;;;;;;;34.90;23.83;;;;;;;7.56;70.22;103608.72;5098935;28;20091;-61
2022/01/23 10:57:22;;;;;;;32.10;22.05;;;;;;;7.56;70.53;103606.03;4741866;28;10000492;-60
2022/01/23 10:59:54;;;;;;;30.38;20.85;;;;;;;7.55;70.14;103601.69;5100781;28;20127;-60
2022/01/23 11:02:24;;;;;;;33.47;22.13;;;;;;;7.55;70.39;103607.03;5097823;28;20078;-60
2022/01/23 11:04:56;;;;;;;32.45;23.52;;;;;;;7.56;70.29;103603.38;5098187;28;20063;-61
2022/01/23 11:07:24;;;;;;;36.10;23.83;;;;;;;7.54;70.38;103608.84;5097272;28;20074;-60
2022/01/23 11:10:01;;;;;;;35.05;21.58;;;;;;;7.56;70.08;103604.22;5097107;28;20316;-60
2022/01/23 11:12:45;;;;;;;30.83;22.60;;;;;;;7.56;70.22;103598.03;5097346;28;20067;-60
2022/01/23 11:18:05;;;;;;;31.77;21.38;;;;;;;7.55;70.32;103593.66;5097741;28;20104;-59
2022/01/23 11:20:36;;;;;;;31.67;22.67;;;;;;;7.54;70.42;103595.47;5098985;28;20072;-60
2022/01/23 11:23:12;;;;;;;34.47;22.85;;;;;;;7.55;70.58;103590.97;5099081;28;20102;-59
2022/01/23 11:25:42;;;;;;;33.30;22.90;;;;;;;7.56;70.59;103590.00;5099007;28;20083;-60
2022/01/23 11:28:10;;;;;;;34.63;22.92;;;;;;;7.54;70.83;103583.94;5097424;28;20464;-60
2022/01/23 11:30:42;;;;;;;33.33;21.95;;;;;;;7.49;70.67;103578.97;5098925;28;20047;-60
2022/01/23 11:33:12;;;;;;;32.25;22.02;;;;;;;7.58;70.70;103593.38;5101929;28;20048;-60
2022/01/23 11:35:40;;;;;;;34.40;22.52;;;;;;;7.71;70.02;103585.97;5098367;28;20071;-60
2022/01/23 11:38:13;;;;;;;31.73;21.90;;;;;;;7.86;68.71;103584.59;5098411;28;20127;-60
2022/01/23 11:50:39;;;;;;;33.97;21.85;;;;;;;8.07;68.38;103584.50;5101822;28;20215;-60
2022/01/23 11:55:00;;;;;;;31.55;21.05;;;;;;;8.99;65.92;103572.38;5098749;28;20090;-60
2022/01/23 11:57:42;;;;;;;29.08;20.77;;;;;;;9.13;65.32;103566.53;5101764;28;20107;-61
2022/01/23 12:00:16;;;;;;;29.83;20.30;;;;;;;9.24;64.54;103562.84;5102660;28;20091;-60
2022/01/23 12:03:05;;;;;;;29.48;19.90;;;;;;;9.36;64.66;103561.66;5097060;28;20127;-60
2022/01/23 12:05:34;;;;;;;30.13;20.38;;;;;;;9.43;64.41;103561.91;5096369;28;20079;-61
2022/01/23 12:08:32;;;;;;;33.80;22.33;;;;;;;9.48;63.81;103562.31;5100931;28;20072;-61
2022/01/23 12:11:40;;;;;;;32.60;21.75;;;;;;;9.49;63.50;103555.13;5097033;28;20454;-61
2022/01/23 12:17:24;;;;;;;29.27;20.60;;;;;;;9.54;63.92;103542.09;4393045;28;10022213;-60
2022/01/23 12:19:57;;;;;;;28.83;19.67;;;;;;;9.57;64.00;103541.78;4741028;28;9999759;-61
2022/01/23 12:22:35;;;;;;;29.65;20.27;;;;;;;9.58;64.00;103536.28;5095654;28;21242;-61
2022/01/23 12:25:22;;;;;;;28.30;20.38;;;;;;;9.56;63.79;103537.41;5093451;28;20087;-57
2022/01/23 12:28:09;;;;;;;34.42;21.55;;;;;;;9.42;64.40;103542.28;5093563;28;20078;-56
2022/01/23 12:30:38;;;;;;;30.67;20.10;;;;;;;9.28;65.14;103539.25;5092450;28;20055;-55
2022/01/23 12:33:19;;;;;;;30.60;21.30;;;;;;;9.10;65.75;103545.38;5092665;28;20048;-56
2022/01/23 12:35:50;;;;;;;29.70;19.98;;;;;;;8.95;65.74;103541.47;5091404;28;20082;-57
2022/01/23 12:38:19;;;;;;;29.42;20.98;;;;;;;8.89;66.08;103542.03;5092225;28;20609;-57
2022/01/23 12:40:49;;;;;;;30.77;21.30;;;;;;;8.98;65.75;103537.63;5093845;28;20075;-57
2022/01/23 12:43:21;;;;;;;26.80;19.63;;;;;;;9.13;66.16;103536.19;5091535;28;20079;-55
2022/01/23 12:45:56;;;;;;;26.85;18.92;;;;;;;9.27;65.19;103529.50;5096586;28;20060;-58
2022/01/23 12:48:49;;;;;;;28.55;19.63;;;;;;;9.42;64.98;103523.50;5097183;28;20036;-55
2022/01/23 12:51:47;;;;;;;27.77;19.92;;;;;;;9.53;63.99;103517.09;5076776;28;20048;-58
2022/01/23 12:54:25;;;;;;;29.80;19.40;;;;;;;9.66;63.78;103520.25;5015255;28;20084;-58
2022/01/23 12:56:53;;;;;;;32.38;20.38;;;;;;;9.62;64.46;103524.25;5010989;28;20122;-57
2022/01/23 12:59:28;;;;;;;28.80;19.92;;;;;;;9.52;64.81;103517.22;5009212;28;20133;-56
2022/01/23 13:02:01;;;;;;;30.92;21.27;;;;;;;9.37;64.53;103512.34;5010173;28;20080;-56
2022/01/23 13:04:35;;;;;;;29.60;20.40;;;;;;;9.17;65.75;103517.97;5012843;28;20049;-57
2022/01/23 13:07:18;;;;;;;31.95;19.55;;;;;;;9.06;65.53;103511.78;5017312;28;20076;-58
2022/01/23 13:09:54;;;;;;;28.38;19.85;;;;;;;8.96;66.61;103512.81;5012208;28;20038;-55
2022/01/23 13:12:46;;;;;;;32.53;20.85;;;;;;;8.89;66.19;103514.38;5011218;28;20136;-60
2022/01/23 13:15:27;;;;;;;28.58;18.95;;;;;;;8.82;67.16;103514.09;5012364;28;20084;-57
2022/01/23 13:18:11;;;;;;;28.85;19.67;;;;;;;8.74;66.49;103509.47;5016473;28;20064;-57
2022/01/23 13:26:48;;;;;;;24.15;17.00;;;;;;;8.55;67.18;103496.13;5018629;28;20077;-58
2022/01/23 13:32:12;;;;;;;29.38;19.38;;;;;;;8.74;65.65;103497.91;5099577;28;20104;-57
2022/01/23 13:34:42;;;;;;;23.65;16.95;;;;;;;8.86;66.24;103498.56;5100488;28;20095;-57
2022/01/23 13:37:12;;;;;;;21.80;16.00;;;;;;;8.91;65.60;103501.66;5099636;28;20052;-57
2022/01/23 13:39:47;;;;;;;21.33;14.65;;;;;;;9.07;65.18;103502.75;5095715;28;20075;-58
2022/01/23 13:51:33;;;;;;;19.73;13.95;;;;;;;9.73;62.92;103497.19;5011806;28;20073;-58
2022/01/23 13:57:31;;;;;;;22.70;14.63;;;;;;;9.85;62.34;103497.81;5013359;28;20045;-59
2022/01/23 13:59:58;;;;;;;19.63;13.13;;;;;;;9.86;62.02;103478.00;5016610;28;20203;-59
2022/01/23 14:02:28;;;;;;;19.73;13.68;;;;;;;9.72;62.34;103476.69;5018818;28;20073;-57
2022/01/23 14:05:06;;;;;;;20.55;13.75;;;;;;;9.54;63.16;103483.88;5011871;28;20096;-57
2022/01/23 14:07:35;;;;;;;20.33;13.20;;;;;;;9.39;63.93;103480.00;5016608;28;20077;-57
2022/01/23 14:10:13;;;;;;;20.45;13.68;;;;;;;9.27;64.09;103481.19;5019140;28;20090;-58
2022/01/23 14:12:42;;;;;;;18.63;12.80;;;;;;;9.17;64.49;103473.19;5018765;28;20073;-58
2022/01/23 14:15:20;;;;;;;17.65;12.90;;;;;;;9.10;64.45;103467.56;5018182;28;20554;-58